sensor_id;sensor_type;location;lat;lon;timestamp;temperature;humidity
3794;DHT22;1912;51.358;12.282;2023-05-24T03:46:28;8.90;1.00
3794;DHT22;1912;51.358;12.282;2023-05-24T03:48:54;8.80;1.00
3794;DHT22;1912;51.358;12.282;2023-05-24T03:51:19;8.90;1.00
3794;DHT22;1912;51.358;12.282;2023-05-24T03:53:48;8.90;1.00
3794;DHT22;1912;51.358;12.282;2023-05-24T03:56:13;8.90;1.00
3794;DHT22;1912;51.358;12.282;2023-05-24T03:58:39;8.90;1.00
3794;DHT22;1912;51.358;12.282;2023-05-24T04:01:05;8.90;1.00
3794;DHT22;1912;51.358;12.282;2023-05-24T04:03:31;9.00;1.00
3794;DHT22;1912;51.358;12.282;2023-05-24T04:05:58;9.00;1.00
3794;DHT22;1912;51.358;12.282;2023-05-24T04:08:23;9.10;1.00
3794;DHT22;1912;51.358;12.282;2023-05-24T04:10:49;9.00;1.00
3794;DHT22;1912;51.358;12.282;2023-05-24T04:13:15;9.00;1.00
3794;DHT22;1912;51.358;12.282;2023-05-24T04:15:41;9.10;1.00
3794;DHT22;1912;51.358;12.282;2023-05-24T04:18:07;8.90;1.00
3794;DHT22;1912;51.358;12.282;2023-05-24T04:20:33;9.00;1.00
3794;DHT22;1912;51.358;12.282;2023-05-24T04:22:59;9.10;1.00
3794;DHT22;1912;51.358;12.282;2023-05-24T04:25:24;9.10;1.00
3794;DHT22;1912;51.358;12.282;2023-05-24T04:27:51;9.10;1.00
3794;DHT22;1912;51.358;12.282;2023-05-24T04:30:16;9.10;1.00
3794;DHT22;1912;51.358;12.282;2023-05-24T04:32:42;9.10;1.00
3794;DHT22;1912;51.358;12.282;2023-05-24T04:35:11;9.10;1.00
3794;DHT22;1912;51.358;12.282;2023-05-24T04:37:38;9.20;1.00
3794;DHT22;1912;51.358;12.282;2023-05-24T04:40:06;9.10;1.00
3794;DHT22;1912;51.358;12.282;2023-05-24T04:42:33;9.20;1.00
3794;DHT22;1912;51.358;12.282;2023-05-24T04:44:59;9.20;1.00
3794;DHT22;1912;51.358;12.282;2023-05-24T04:47:25;9.20;1.00
3794;DHT22;1912;51.358;12.282;2023-05-24T04:49:51;9.20;1.00
3794;DHT22;1912;51.358;12.282;2023-05-24T04:52:17;9.20;1.00
3794;DHT22;1912;51.358;12.282;2023-05-24T04:54:42;9.20;1.00
3794;DHT22;1912;51.358;12.282;2023-05-24T04:57:08;9.20;1.00
3794;DHT22;1912;51.358;12.282;2023-05-24T04:59:34;9.30;1.00
3794;DHT22;1912;51.358;12.282;2023-05-24T05:02:00;9.30;1.00
3794;DHT22;1912;51.358;12.282;2023-05-24T05:04:26;9.30;1.00
3794;DHT22;1912;51.358;12.282;2023-05-24T05:06:51;9.30;1.00
3794;DHT22;1912;51.358;12.282;2023-05-24T05:09:17;9.40;1.00
3794;DHT22;1912;51.358;12.282;2023-05-24T05:11:45;9.40;1.00
3794;DHT22;1912;51.358;12.282;2023-05-24T05:14:11;9.30;1.00
3794;DHT22;1912;51.358;12.282;2023-05-24T05:16:37;9.30;1.00
3794;DHT22;1912;51.358;12.282;2023-05-24T05:19:03;9.50;1.00
3794;DHT22;1912;51.358;12.282;2023-05-24T05:21:29;9.50;1.00
3794;DHT22;1912;51.358;12.282;2023-05-24T05:23:59;9.60;1.00
3794;DHT22;1912;51.358;12.282;2023-05-24T05:26:26;9.60;1.00
3794;DHT22;1912;51.358;12.282;2023-05-24T05:28:52;9.50;1.00
3794;DHT22;1912;51.358;12.282;2023-05-24T05:31:19;9.50;1.00
3794;DHT22;1912;51.358;12.282;2023-05-24T05:33:45;9.60;1.00
3794;DHT22;1912;51.358;12.282;2023-05-24T05:36:11;9.70;1.00
3794;DHT22;1912;51.358;12.282;2023-05-24T05:38:36;9.70;1.00
3794;DHT22;1912;51.358;12.282;2023-05-24T05:41:02;9.70;1.00
3794;DHT22;1912;51.358;12.282;2023-05-24T05:43:27;9.80;1.00
3794;DHT22;1912;51.358;12.282;2023-05-24T05:45:54;9.70;1.00
3794;DHT22;1912;51.358;12.282;2023-05-24T05:48:20;9.80;1.00
3794;DHT22;1912;51.358;12.282;2023-05-24T05:50:46;9.70;1.00
3794;DHT22;1912;51.358;12.282;2023-05-24T05:53:11;9.90;1.00
3794;DHT22;1912;51.358;12.282;2023-05-24T05:55:37;10.00;1.00
3794;DHT22;1912;51.358;12.282;2023-05-24T05:58:03;10.10;1.00
3794;DHT22;1912;51.358;12.282;2023-05-24T06:00:28;10.20;1.00
3794;DHT22;1912;51.358;12.282;2023-05-24T06:02:54;10.30;1.00
3794;DHT22;1912;51.358;12.282;2023-05-24T06:05:20;10.30;1.00
3794;DHT22;1912;51.358;12.282;2023-05-24T06:07:45;10.40;1.00
3794;DHT22;1912;51.358;12.282;2023-05-24T06:10:12;10.40;1.00
3794;DHT22;1912;51.358;12.282;2023-05-24T06:12:37;10.60;1.00
3794;DHT22;1912;51.358;12.282;2023-05-24T06:15:05;10.70;1.00
3794;DHT22;1912;51.358;12.282;2023-05-24T06:17:33;10.80;1.00
3794;DHT22;1912;51.358;12.282;2023-05-24T06:19:59;10.80;1.00
3794;DHT22;1912;51.358;12.282;2023-05-24T06:22:25;11.00;1.00
3794;DHT22;1912;51.358;12.282;2023-05-24T06:24:54;11.00;1.00
3794;DHT22;1912;51.358;12.282;2023-05-24T06:27:20;11.00;1.00
3794;DHT22;1912;51.358;12.282;2023-05-24T06:29:46;10.90;1.00
3794;DHT22;1912;51.358;12.282;2023-05-24T06:32:11;10.90;1.00
3794;DHT22;1912;51.358;12.282;2023-05-24T06:34:37;11.10;1.00
3794;DHT22;1912;51.358;12.282;2023-05-24T06:37:03;11.20;1.00
3794;DHT22;1912;51.358;12.282;2023-05-24T06:39:28;11.20;1.00
3794;DHT22;1912;51.358;12.282;2023-05-24T06:41:54;11.20;1.00
3794;DHT22;1912;51.358;12.282;2023-05-24T06:44:20;11.40;1.00
3794;DHT22;1912;51.358;12.282;2023-05-24T06:46:47;11.50;1.00
3794;DHT22;1912;51.358;12.282;2023-05-24T06:49:13;11.40;1.00
3794;DHT22;1912;51.358;12.282;2023-05-24T06:51:39;11.50;1.00
3794;DHT22;1912;51.358;12.282;2023-05-24T06:54:04;11.60;1.00
3794;DHT22;1912;51.358;12.282;2023-05-24T06:56:30;11.40;1.00
3794;DHT22;1912;51.358;12.282;2023-05-24T06:58:58;11.10;1.00
3794;DHT22;1912;51.358;12.282;2023-05-24T07:01:23;11.30;1.00
3794;DHT22;1912;51.358;12.282;2023-05-24T07:03:49;11.20;1.00
3794;DHT22;1912;51.358;12.282;2023-05-24T07:06:15;11.10;1.00
3794;DHT22;1912;51.358;12.282;2023-05-24T07:08:41;11.30;1.00
3794;DHT22;1912;51.358;12.282;2023-05-24T07:11:07;11.10;1.00
3794;DHT22;1912;51.358;12.282;2023-05-24T07:13:33;11.30;1.00
3794;DHT22;1912;51.358;12.282;2023-05-24T07:15:59;11.40;1.00
3794;DHT22;1912;51.358;12.282;2023-05-24T07:18:25;11.50;1.00
3794;DHT22;1912;51.358;12.282;2023-05-24T07:20:50;11.40;1.00
3794;DHT22;1912;51.358;12.282;2023-05-24T07:23:16;11.30;1.00
3794;DHT22;1912;51.358;12.282;2023-05-24T07:25:42;11.50;1.00
3794;DHT22;1912;51.358;12.282;2023-05-24T07:28:07;11.40;1.00
3794;DHT22;1912;51.358;12.282;2023-05-24T07:30:33;11.50;1.00
3794;DHT22;1912;51.358;12.282;2023-05-24T07:32:59;11.70;1.00
3794;DHT22;1912;51.358;12.282;2023-05-24T07:35:26;11.80;1.00
3794;DHT22;1912;51.358;12.282;2023-05-24T07:37:53;11.80;1.00
3794;DHT22;1912;51.358;12.282;2023-05-24T07:40:19;11.90;1.00
3794;DHT22;1912;51.358;12.282;2023-05-24T07:42:44;11.90;1.00
3794;DHT22;1912;51.358;12.282;2023-05-24T07:45:11;11.90;1.00
3794;DHT22;1912;51.358;12.282;2023-05-24T07:47:38;12.00;1.00
3794;DHT22;1912;51.358;12.282;2023-05-24T07:50:04;11.80;1.00
3794;DHT22;1912;51.358;12.282;2023-05-24T07:52:30;11.80;1.00
3794;DHT22;1912;51.358;12.282;2023-05-24T07:54:55;11.70;1.00
3794;DHT22;1912;51.358;12.282;2023-05-24T07:57:21;11.80;1.00
3794;DHT22;1912;51.358;12.282;2023-05-24T07:59:47;11.90;1.00
3794;DHT22;1912;51.358;12.282;2023-05-24T08:02:12;12.00;1.00
3794;DHT22;1912;51.358;12.282;2023-05-24T08:04:39;11.90;1.00
3794;DHT22;1912;51.358;12.282;2023-05-24T08:07:05;12.00;1.00
3794;DHT22;1912;51.358;12.282;2023-05-24T08:09:31;12.00;1.00
3794;DHT22;1912;51.358;12.282;2023-05-24T08:12:00;12.20;1.00
3794;DHT22;1912;51.358;12.282;2023-05-24T08:14:27;12.40;1.00
3794;DHT22;1912;51.358;12.282;2023-05-24T08:16:52;12.20;1.00
3794;DHT22;1912;51.358;12.282;2023-05-24T08:19:18;12.20;1.00
3794;DHT22;1912;51.358;12.282;2023-05-24T08:21:44;12.30;1.00
3794;DHT22;1912;51.358;12.282;2023-05-24T08:24:10;12.60;1.00
3794;DHT22;1912;51.358;12.282;2023-05-24T08:26:36;12.90;1.00
3794;DHT22;1912;51.358;12.282;2023-05-24T08:29:02;13.30;1.00
3794;DHT22;1912;51.358;12.282;2023-05-24T08:31:29;13.50;1.00
3794;DHT22;1912;51.358;12.282;2023-05-24T08:33:57;13.10;1.00
3794;DHT22;1912;51.358;12.282;2023-05-24T08:36:22;13.30;1.00
3794;DHT22;1912;51.358;12.282;2023-05-24T08:38:48;13.50;1.00
3794;DHT22;1912;51.358;12.282;2023-05-24T08:41:14;13.50;1.00
3794;DHT22;1912;51.358;12.282;2023-05-24T08:43:41;13.40;1.00
3794;DHT22;1912;51.358;12.282;2023-05-24T08:46:09;13.60;1.00
3794;DHT22;1912;51.358;12.282;2023-05-24T08:48:44;13.70;1.00
3794;DHT22;1912;51.358;12.282;2023-05-24T08:51:13;13.80;1.00
3794;DHT22;1912;51.358;12.282;2023-05-24T08:53:40;13.90;1.00
3794;DHT22;1912;51.358;12.282;2023-05-24T08:56:06;13.70;1.00
3794;DHT22;1912;51.358;12.282;2023-05-24T08:58:35;13.70;1.00
3794;DHT22;1912;51.358;12.282;2023-05-24T09:01:03;13.80;1.00
3794;DHT22;1912;51.358;12.282;2023-05-24T09:03:30;14.00;1.00
3794;DHT22;1912;51.358;12.282;2023-05-24T09:05:57;14.30;1.00
3794;DHT22;1912;51.358;12.282;2023-05-24T09:08:25;14.60;1.00
3794;DHT22;1912;51.358;12.282;2023-05-24T09:10:52;14.50;1.00
3794;DHT22;1912;51.358;12.282;2023-05-24T09:13:18;14.40;1.00
3794;DHT22;1912;51.358;12.282;2023-05-24T09:15:44;13.90;1.00
3794;DHT22;1912;51.358;12.282;2023-05-24T09:18:10;13.60;1.00
3794;DHT22;1912;51.358;12.282;2023-05-24T09:20:36;13.90;1.00
3794;DHT22;1912;51.358;12.282;2023-05-24T09:23:03;14.10;1.00
3794;DHT22;1912;51.358;12.282;2023-05-24T09:25:29;14.20;1.00
3794;DHT22;1912;51.358;12.282;2023-05-24T09:27:56;14.30;1.00
3794;DHT22;1912;51.358;12.282;2023-05-24T09:30:22;14.10;1.00
3794;DHT22;1912;51.358;12.282;2023-05-24T09:32:55;14.20;1.00
3794;DHT22;1912;51.358;12.282;2023-05-24T09:35:22;14.40;1.00
3794;DHT22;1912;51.358;12.282;2023-05-24T09:37:48;14.90;1.00
3794;DHT22;1912;51.358;12.282;2023-05-24T09:40:18;14.70;1.00
3794;DHT22;1912;51.358;12.282;2023-05-24T09:42:44;14.60;1.00
3794;DHT22;1912;51.358;12.282;2023-05-24T09:45:10;14.90;1.00
3794;DHT22;1912;51.358;12.282;2023-05-24T09:47:38;15.10;1.00
3794;DHT22;1912;51.358;12.282;2023-05-24T09:50:14;15.00;1.00
3794;DHT22;1912;51.358;12.282;2023-05-24T09:52:41;14.80;1.00
3794;DHT22;1912;51.358;12.282;2023-05-24T09:55:15;14.90;1.00
3794;DHT22;1912;51.358;12.282;2023-05-24T09:57:52;15.80;1.00
3794;DHT22;1912;51.358;12.282;2023-05-24T10:00:31;16.10;1.00
3794;DHT22;1912;51.358;12.282;2023-05-24T10:03:03;16.10;1.00
3794;DHT22;1912;51.358;12.282;2023-05-24T10:05:32;15.80;1.00
3794;DHT22;1912;51.358;12.282;2023-05-24T10:07:59;15.30;1.00
3794;DHT22;1912;51.358;12.282;2023-05-24T10:10:27;15.30;1.00
3794;DHT22;1912;51.358;12.282;2023-05-24T10:12:56;15.50;1.00
3794;DHT22;1912;51.358;12.282;2023-05-24T10:15:27;15.40;1.00
3794;DHT22;1912;51.358;12.282;2023-05-24T10:17:54;15.10;1.00
3794;DHT22;1912;51.358;12.282;2023-05-24T10:20:22;15.30;1.00
3794;DHT22;1912;51.358;12.282;2023-05-24T10:22:52;15.00;1.00
3794;DHT22;1912;51.358;12.282;2023-05-24T10:25:21;15.10;1.00
3794;DHT22;1912;51.358;12.282;2023-05-24T10:27:51;14.80;1.00
3794;DHT22;1912;51.358;12.282;2023-05-24T10:33:11;14.90;1.00
3794;DHT22;1912;51.358;12.282;2023-05-24T10:35:38;14.90;1.00
3794;DHT22;1912;51.358;12.282;2023-05-24T10:38:06;15.10;1.00
3794;DHT22;1912;51.358;12.282;2023-05-24T10:40:32;15.00;1.00
3794;DHT22;1912;51.358;12.282;2023-05-24T10:42:58;15.00;1.00
3794;DHT22;1912;51.358;12.282;2023-05-24T10:47:53;15.40;1.00
3794;DHT22;1912;51.358;12.282;2023-05-24T10:50:21;15.30;1.00
3794;DHT22;1912;51.358;12.282;2023-05-24T10:52:48;15.60;1.00
3794;DHT22;1912;51.358;12.282;2023-05-24T10:55:14;15.70;1.00
3794;DHT22;1912;51.358;12.282;2023-05-24T10:57:40;15.30;1.00
3794;DHT22;1912;51.358;12.282;2023-05-24T11:02:50;15.10;1.00
3794;DHT22;1912;51.358;12.282;2023-05-24T11:05:16;15.40;1.00
3794;DHT22;1912;51.358;12.282;2023-05-24T11:07:42;15.80;1.00
3794;DHT22;1912;51.358;12.282;2023-05-24T11:10:12;15.80;1.00
3794;DHT22;1912;51.358;12.282;2023-05-24T11:12:39;15.60;1.00
3794;DHT22;1912;51.358;12.282;2023-05-24T11:15:08;15.50;1.00
3794;DHT22;1912;51.358;12.282;2023-05-24T11:20:37;16.10;1.00
3794;DHT22;1912;51.358;12.282;2023-05-24T11:23:04;16.20;1.00
3794;DHT22;1912;51.358;12.282;2023-05-24T11:25:39;16.60;1.00
3794;DHT22;1912;51.358;12.282;2023-05-24T11:28:09;16.90;1.00
3794;DHT22;1912;51.358;12.282;2023-05-24T11:30:42;16.90;1.00
3794;DHT22;1912;51.358;12.282;2023-05-24T11:35:53;17.40;1.00
3794;DHT22;1912;51.358;12.282;2023-05-24T11:38:20;17.50;1.00
3794;DHT22;1912;51.358;12.282;2023-05-24T11:40:47;17.50;1.00
3794;DHT22;1912;51.358;12.282;2023-05-24T11:43:20;17.00;1.00
3794;DHT22;1912;51.358;12.282;2023-05-24T11:45:50;16.70;1.00
3794;DHT22;1912;51.358;12.282;2023-05-24T11:48:17;16.50;1.00
3794;DHT22;1912;51.358;12.282;2023-05-24T11:50:45;16.60;1.00
3794;DHT22;1912;51.358;12.282;2023-05-24T11:53:14;16.70;1.00
3794;DHT22;1912;51.358;12.282;2023-05-24T11:55:41;16.70;1.00
3794;DHT22;1912;51.358;12.282;2023-05-24T12:00:46;17.30;1.00
3794;DHT22;1912;51.358;12.282;2023-05-24T12:03:12;16.50;1.00
3794;DHT22;1912;51.358;12.282;2023-05-24T12:05:38;16.50;1.00
3794;DHT22;1912;51.358;12.282;2023-05-24T12:08:08;16.30;1.00
3794;DHT22;1912;51.358;12.282;2023-05-24T12:10:38;16.50;1.00
3794;DHT22;1912;51.358;12.282;2023-05-24T12:13:16;17.00;1.00
3794;DHT22;1912;51.358;12.282;2023-05-24T12:15:52;16.50;1.00
3794;DHT22;1912;51.358;12.282;2023-05-24T12:18:23;17.00;1.00
3794;DHT22;1912;51.358;12.282;2023-05-24T12:20:50;17.30;1.00
3794;DHT22;1912;51.358;12.282;2023-05-24T12:23:21;17.50;1.00
3794;DHT22;1912;51.358;12.282;2023-05-24T12:25:48;17.70;1.00
3794;DHT22;1912;51.358;12.282;2023-05-24T12:28:15;17.60;1.00
3794;DHT22;1912;51.358;12.282;2023-05-24T12:30:44;17.50;1.00
3794;DHT22;1912;51.358;12.282;2023-05-24T12:33:10;17.70;1.00
3794;DHT22;1912;51.358;12.282;2023-05-24T12:35:39;18.10;1.00
3794;DHT22;1912;51.358;12.282;2023-05-24T12:38:08;18.10;1.00
3794;DHT22;1912;51.358;12.282;2023-05-24T12:40:35;17.90;1.00
3794;DHT22;1912;51.358;12.282;2023-05-24T12:43:02;18.50;1.00
3794;DHT22;1912;51.358;12.282;2023-05-24T12:45:29;18.20;1.00
3794;DHT22;1912;51.358;12.282;2023-05-24T12:47:56;18.70;1.00
3794;DHT22;1912;51.358;12.282;2023-05-24T12:50:24;19.60;1.00
3794;DHT22;1912;51.358;12.282;2023-05-24T12:52:51;20.20;1.00
3794;DHT22;1912;51.358;12.282;2023-05-24T12:55:25;20.30;1.00
3794;DHT22;1912;51.358;12.282;2023-05-24T12:57:53;20.30;1.00
3794;DHT22;1912;51.358;12.282;2023-05-24T13:00:21;19.90;1.00
3794;DHT22;1912;51.358;12.282;2023-05-24T13:02:48;19.70;1.00
3794;DHT22;1912;51.358;12.282;2023-05-24T13:05:17;19.70;1.00
3794;DHT22;1912;51.358;12.282;2023-05-24T13:07:43;20.40;1.00
3794;DHT22;1912;51.358;12.282;2023-05-24T13:10:10;20.00;1.00
3794;DHT22;1912;51.358;12.282;2023-05-24T13:12:36;19.90;1.00
3794;DHT22;1912;51.358;12.282;2023-05-24T13:15:03;20.40;1.00
3794;DHT22;1912;51.358;12.282;2023-05-24T13:17:30;20.90;1.00
3794;DHT22;1912;51.358;12.282;2023-05-24T13:19:58;20.40;1.00
3794;DHT22;1912;51.358;12.282;2023-05-24T13:22:25;20.20;1.00
3794;DHT22;1912;51.358;12.282;2023-05-24T13:24:51;19.60;1.00
3794;DHT22;1912;51.358;12.282;2023-05-24T13:27:17;19.00;1.00
3794;DHT22;1912;51.358;12.282;2023-05-24T13:29:43;18.50;1.00
3794;DHT22;1912;51.358;12.282;2023-05-24T13:32:08;18.40;1.00
3794;DHT22;1912;51.358;12.282;2023-05-24T13:34:34;18.60;1.00
3794;DHT22;1912;51.358;12.282;2023-05-24T13:37:01;18.50;1.00
3794;DHT22;1912;51.358;12.282;2023-05-24T13:39:26;18.70;1.00
3794;DHT22;1912;51.358;12.282;2023-05-24T13:41:52;18.60;1.00
3794;DHT22;1912;51.358;12.282;2023-05-24T13:44:18;18.20;1.00
3794;DHT22;1912;51.358;12.282;2023-05-24T13:46:44;18.20;1.00
3794;DHT22;1912;51.358;12.282;2023-05-24T13:49:10;18.20;1.00
3794;DHT22;1912;51.358;12.282;2023-05-24T13:51:36;18.30;1.00
3794;DHT22;1912;51.358;12.282;2023-05-24T13:54:03;18.10;1.00
3794;DHT22;1912;51.358;12.282;2023-05-24T13:56:31;18.50;1.00
3794;DHT22;1912;51.358;12.282;2023-05-24T13:58:59;18.60;1.00
3794;DHT22;1912;51.358;12.282;2023-05-24T14:01:25;19.20;1.00
3794;DHT22;1912;51.358;12.282;2023-05-24T14:03:51;19.40;1.00
3794;DHT22;1912;51.358;12.282;2023-05-24T14:06:17;19.20;1.00
3794;DHT22;1912;51.358;12.282;2023-05-24T14:08:44;19.40;1.00
3794;DHT22;1912;51.358;12.282;2023-05-24T14:11:10;18.90;1.00
3794;DHT22;1912;51.358;12.282;2023-05-24T14:13:37;18.60;1.00
3794;DHT22;1912;51.358;12.282;2023-05-24T14:16:03;18.10;1.00
3794;DHT22;1912;51.358;12.282;2023-05-24T14:18:29;17.90;1.00
3794;DHT22;1912;51.358;12.282;2023-05-24T14:20:54;18.00;1.00
3794;DHT22;1912;51.358;12.282;2023-05-24T14:23:20;18.10;1.00
3794;DHT22;1912;51.358;12.282;2023-05-24T14:25:46;18.30;1.00
3794;DHT22;1912;51.358;12.282;2023-05-24T14:28:11;18.30;1.00
3794;DHT22;1912;51.358;12.282;2023-05-24T14:30:37;18.00;1.00
3794;DHT22;1912;51.358;12.282;2023-05-24T14:33:03;17.80;1.00
3794;DHT22;1912;51.358;12.282;2023-05-24T14:35:31;17.90;1.00
3794;DHT22;1912;51.358;12.282;2023-05-24T14:38:07;18.00;1.00
3794;DHT22;1912;51.358;12.282;2023-05-24T14:40:34;18.40;1.00
3794;DHT22;1912;51.358;12.282;2023-05-24T14:43:03;18.30;1.00
3794;DHT22;1912;51.358;12.282;2023-05-24T14:45:29;18.50;1.00
3794;DHT22;1912;51.358;12.282;2023-05-24T14:47:54;18.50;1.00
3794;DHT22;1912;51.358;12.282;2023-05-24T14:50:21;18.40;1.00
3794;DHT22;1912;51.358;12.282;2023-05-24T14:52:47;18.30;1.00
3794;DHT22;1912;51.358;12.282;2023-05-24T14:55:12;18.00;1.00
3794;DHT22;1912;51.358;12.282;2023-05-24T14:57:39;18.00;1.00
3794;DHT22;1912;51.358;12.282;2023-05-24T15:00:05;18.10;1.00
3794;DHT22;1912;51.358;12.282;2023-05-24T15:02:31;18.00;1.00
3794;DHT22;1912;51.358;12.282;2023-05-24T15:04:58;18.30;1.00
3794;DHT22;1912;51.358;12.282;2023-05-24T15:07:24;18.30;1.00
3794;DHT22;1912;51.358;12.282;2023-05-24T15:09:50;18.80;1.00
3794;DHT22;1912;51.358;12.282;2023-05-24T15:12:16;19.30;1.00
3794;DHT22;1912;51.358;12.282;2023-05-24T15:14:42;18.80;1.00
3794;DHT22;1912;51.358;12.282;2023-05-24T15:17:09;18.80;1.00
3794;DHT22;1912;51.358;12.282;2023-05-24T15:19:36;18.80;1.00
3794;DHT22;1912;51.358;12.282;2023-05-24T15:22:02;18.80;1.00
3794;DHT22;1912;51.358;12.282;2023-05-24T15:24:27;18.80;1.00
3794;DHT22;1912;51.358;12.282;2023-05-24T15:26:53;18.70;1.00
3794;DHT22;1912;51.358;12.282;2023-05-24T15:29:19;18.70;1.00
3794;DHT22;1912;51.358;12.282;2023-05-24T15:31:45;18.50;1.00
3794;DHT22;1912;51.358;12.282;2023-05-24T15:34:11;18.50;1.00
3794;DHT22;1912;51.358;12.282;2023-05-24T15:36:36;18.40;1.00
3794;DHT22;1912;51.358;12.282;2023-05-24T15:39:02;18.40;1.00
3794;DHT22;1912;51.358;12.282;2023-05-24T15:41:30;18.60;1.00
3794;DHT22;1912;51.358;12.282;2023-05-24T15:43:56;18.80;1.00
3794;DHT22;1912;51.358;12.282;2023-05-24T15:46:22;19.20;1.00
3794;DHT22;1912;51.358;12.282;2023-05-24T15:48:48;19.50;1.00
3794;DHT22;1912;51.358;12.282;2023-05-24T15:51:14;19.40;1.00
3794;DHT22;1912;51.358;12.282;2023-05-24T15:53:39;19.20;1.00
3794;DHT22;1912;51.358;12.282;2023-05-24T15:56:06;19.30;1.00
3794;DHT22;1912;51.358;12.282;2023-05-24T15:58:31;19.50;1.00
3794;DHT22;1912;51.358;12.282;2023-05-24T16:00:57;19.30;1.00
3794;DHT22;1912;51.358;12.282;2023-05-24T16:03:22;19.50;1.00
3794;DHT22;1912;51.358;12.282;2023-05-24T16:05:48;19.30;1.00
3794;DHT22;1912;51.358;12.282;2023-05-24T16:08:15;19.30;1.00
3794;DHT22;1912;51.358;12.282;2023-05-24T16:10:41;19.80;1.00
3794;DHT22;1912;51.358;12.282;2023-05-24T16:13:08;19.80;1.00
3794;DHT22;1912;51.358;12.282;2023-05-24T16:15:34;20.00;1.00
3794;DHT22;1912;51.358;12.282;2023-05-24T16:18:02;20.40;1.00
3794;DHT22;1912;51.358;12.282;2023-05-24T16:20:28;20.60;1.00
3794;DHT22;1912;51.358;12.282;2023-05-24T16:22:54;20.70;1.00
3794;DHT22;1912;51.358;12.282;2023-05-24T16:25:20;20.70;1.00
3794;DHT22;1912;51.358;12.282;2023-05-24T16:27:45;20.90;1.00
3794;DHT22;1912;51.358;12.282;2023-05-24T16:30:11;20.50;1.00
3794;DHT22;1912;51.358;12.282;2023-05-24T16:32:37;20.70;1.00
3794;DHT22;1912;51.358;12.282;2023-05-24T16:35:04;20.80;1.00
3794;DHT22;1912;51.358;12.282;2023-05-24T16:37:30;21.20;1.00
3794;DHT22;1912;51.358;12.282;2023-05-24T16:39:55;20.90;1.00
3794;DHT22;1912;51.358;12.282;2023-05-24T16:42:21;20.80;1.00
3794;DHT22;1912;51.358;12.282;2023-05-24T16:44:47;20.90;1.00
3794;DHT22;1912;51.358;12.282;2023-05-24T16:47:12;20.60;1.00
3794;DHT22;1912;51.358;12.282;2023-05-24T16:49:38;20.40;1.00
3794;DHT22;1912;51.358;12.282;2023-05-24T16:52:04;19.90;1.00
3794;DHT22;1912;51.358;12.282;2023-05-24T16:54:29;19.90;1.00
3794;DHT22;1912;51.358;12.282;2023-05-24T16:56:55;19.90;1.00
3794;DHT22;1912;51.358;12.282;2023-05-24T16:59:21;19.30;1.00
3794;DHT22;1912;51.358;12.282;2023-05-24T17:01:47;19.30;1.00
3794;DHT22;1912;51.358;12.282;2023-05-24T17:04:15;19.10;1.00
3794;DHT22;1912;51.358;12.282;2023-05-24T17:06:42;19.30;1.00
3794;DHT22;1912;51.358;12.282;2023-05-24T17:09:07;18.80;1.00
3794;DHT22;1912;51.358;12.282;2023-05-24T17:11:33;18.70;1.00
3794;DHT22;1912;51.358;12.282;2023-05-24T17:14:00;18.70;1.00
3794;DHT22;1912;51.358;12.282;2023-05-24T17:16:26;18.50;1.00
3794;DHT22;1912;51.358;12.282;2023-05-24T17:18:53;18.20;1.00
3794;DHT22;1912;51.358;12.282;2023-05-24T17:21:20;18.00;1.00
3794;DHT22;1912;51.358;12.282;2023-05-24T17:23:46;17.70;1.00
3794;DHT22;1912;51.358;12.282;2023-05-24T17:26:13;17.60;1.00
3794;DHT22;1912;51.358;12.282;2023-05-24T17:28:39;17.80;1.00
3794;DHT22;1912;51.358;12.282;2023-05-24T17:31:06;17.80;1.00
3794;DHT22;1912;51.358;12.282;2023-05-24T17:33:33;17.80;1.00
3794;DHT22;1912;51.358;12.282;2023-05-24T17:35:59;17.80;1.00
3794;DHT22;1912;51.358;12.282;2023-05-24T17:38:28;17.70;1.00
3794;DHT22;1912;51.358;12.282;2023-05-24T17:40:57;17.70;1.00
3794;DHT22;1912;51.358;12.282;2023-05-24T17:43:26;17.60;1.00
3794;DHT22;1912;51.358;12.282;2023-05-24T17:45:54;17.40;1.00
3794;DHT22;1912;51.358;12.282;2023-05-24T17:48:37;17.40;1.00
3794;DHT22;1912;51.358;12.282;2023-05-24T17:51:05;17.30;1.00
3794;DHT22;1912;51.358;12.282;2023-05-24T17:53:32;17.20;1.00
3794;DHT22;1912;51.358;12.282;2023-05-24T17:56:00;17.20;1.00
3794;DHT22;1912;51.358;12.282;2023-05-24T17:58:26;17.00;1.00
3794;DHT22;1912;51.358;12.282;2023-05-24T18:00:55;16.80;1.00
3794;DHT22;1912;51.358;12.282;2023-05-24T18:03:21;16.90;1.00
3794;DHT22;1912;51.358;12.282;2023-05-24T18:05:48;17.00;1.00
3794;DHT22;1912;51.358;12.282;2023-05-24T18:08:14;16.80;1.00
3794;DHT22;1912;51.358;12.282;2023-05-24T18:10:39;16.70;1.00
3794;DHT22;1912;51.358;12.282;2023-05-24T18:13:06;16.70;1.00
3794;DHT22;1912;51.358;12.282;2023-05-24T18:15:35;16.70;1.00
3794;DHT22;1912;51.358;12.282;2023-05-24T18:18:01;16.50;1.00
3794;DHT22;1912;51.358;12.282;2023-05-24T18:20:27;16.40;1.00
3794;DHT22;1912;51.358;12.282;2023-05-24T18:22:53;16.40;1.00
3794;DHT22;1912;51.358;12.282;2023-05-24T18:25:19;16.30;1.00
3794;DHT22;1912;51.358;12.282;2023-05-24T18:27:45;16.30;1.00
3794;DHT22;1912;51.358;12.282;2023-05-24T18:30:11;16.30;1.00
3794;DHT22;1912;51.358;12.282;2023-05-24T18:32:37;16.30;1.00
3794;DHT22;1912;51.358;12.282;2023-05-24T18:35:03;16.20;1.00
3794;DHT22;1912;51.358;12.282;2023-05-24T18:37:29;16.10;1.00
3794;DHT22;1912;51.358;12.282;2023-05-24T18:39:55;16.20;1.00
3794;DHT22;1912;51.358;12.282;2023-05-24T18:42:23;16.00;1.00
3794;DHT22;1912;51.358;12.282;2023-05-24T18:44:48;15.80;1.00
3794;DHT22;1912;51.358;12.282;2023-05-24T18:47:14;15.70;1.00
3794;DHT22;1912;51.358;12.282;2023-05-24T18:49:40;15.60;1.00
3794;DHT22;1912;51.358;12.282;2023-05-24T18:52:06;15.60;1.00
3794;DHT22;1912;51.358;12.282;2023-05-24T18:54:32;15.60;1.00
3794;DHT22;1912;51.358;12.282;2023-05-24T18:56:58;15.40;1.00
3794;DHT22;1912;51.358;12.282;2023-05-24T18:59:29;15.40;1.00
3794;DHT22;1912;51.358;12.282;2023-05-24T19:01:56;15.30;1.00
3794;DHT22;1912;51.358;12.282;2023-05-24T19:04:22;15.40;1.00
3794;DHT22;1912;51.358;12.282;2023-05-24T19:06:48;15.20;1.00
3794;DHT22;1912;51.358;12.282;2023-05-24T19:09:14;15.20;1.00
3794;DHT22;1912;51.358;12.282;2023-05-24T19:11:40;15.00;1.00
3794;DHT22;1912;51.358;12.282;2023-05-24T19:14:06;15.10;1.00
3794;DHT22;1912;51.358;12.282;2023-05-24T19:16:31;15.00;1.00
3794;DHT22;1912;51.358;12.282;2023-05-24T19:18:57;15.00;1.00
3794;DHT22;1912;51.358;12.282;2023-05-24T19:21:23;14.90;1.00
3794;DHT22;1912;51.358;12.282;2023-05-24T19:23:49;14.80;1.00
3794;DHT22;1912;51.358;12.282;2023-05-24T19:26:14;14.80;1.00
3794;DHT22;1912;51.358;12.282;2023-05-24T19:28:43;14.80;1.00
3794;DHT22;1912;51.358;12.282;2023-05-24T19:31:16;14.60;1.00
3794;DHT22;1912;51.358;12.282;2023-05-24T19:33:42;14.50;1.00
3794;DHT22;1912;51.358;12.282;2023-05-24T19:36:10;14.50;1.00
3794;DHT22;1912;51.358;12.282;2023-05-24T19:38:36;14.50;1.00
3794;DHT22;1912;51.358;12.282;2023-05-24T19:41:02;14.50;1.00
3794;DHT22;1912;51.358;12.282;2023-05-24T19:43:27;14.40;1.00
3794;DHT22;1912;51.358;12.282;2023-05-24T19:45:53;14.40;1.00
